Flight Track Log - Related Links

Times and Time Zones

All times are in EDT time to prevent confusion due to time zone crossing. See the DLH805 flight status page for this flight to view local times or setup timezone preferences in your user account.

Time Position Orientation Groundspeed Altitude Reporting Facility
EDT Latitude Longitude Course Direction KTS MPH feet Rate Location/Type
Wed 01:17:53 PM 59.6080 17.9420 198° South 176 203 1,500  Level FlightAware ADS-B
Wed 01:18:22 PM 59.5840 17.9270 198° South 195 224 2,300 1,459 Climbing FlightAware ADS-B
Wed 01:18:30 PM 59.5770 17.9200 207° Southwest 203 234 2,400 1,385 Climbing FlightAware ADS-B
Wed 01:18:48 PM 59.5660 17.8940 230° Southwest 219 252 2,900 1,636 Climbing FlightAware ADS-B
Wed 01:19:14 PM 59.5510 17.8470 238° Southwest 243 280 3,600 2,143 Climbing FlightAware ADS-B
Wed 01:19:30 PM 59.5420 17.8160 240° Southwest 248 285 4,400 3,000 Climbing FlightAware ADS-B
Wed 01:19:56 PM 59.5280 17.7640 242° Southwest 250 288 5,700 2,690 Climbing FlightAware ADS-B
Wed 01:20:28 PM 59.5090 17.7000 240° Southwest 262 302 7,000 2,550 Climbing FlightAware ADS-B
Wed 01:20:36 PM 59.5020 17.6850 227° Southwest 267 307 7,400 2,640 Climbing FlightAware ADS-B
Wed 01:20:53 PM 59.4840 17.6650 209° Southwest 271 312 8,100 2,625 Climbing FlightAware ADS-B
Wed 01:21:24 PM 59.4480 17.6320 205° Southwest 277 319 9,500 2,113 Climbing FlightAware ADS-B
Wed 01:22:04 PM 59.4000 17.5880 205° Southwest 303 349 10,600 1,390 Climbing FlightAware ADS-B
Wed 01:22:46 PM 59.3430 17.5320 207° Southwest 342 394 11,400 1,605 Climbing FlightAware ADS-B
Wed 01:23:30 PM 59.2810 17.4690 207° Southwest 359 413 12,900 2,188 Climbing FlightAware ADS-B
Wed 01:24:11 PM 59.2300 17.3970 216° Southwest 360 414 14,500 2,286 Climbing FlightAware ADS-B
Wed 01:24:54 PM 59.1680 17.3030 218° Southwest 366 421 16,100 2,024 Climbing FlightAware ADS-B
Wed 01:25:34 PM 59.1130 17.2190 218° Southwest 380 437 17,300 1,929 Climbing FlightAware ADS-B
Wed 01:26:18 PM 59.0560 17.1310 218° Southwest 381 438 18,800 1,953 Climbing FlightAware ADS-B
Wed 01:27:00 PM 58.9950 17.0390 218° Southwest 388 447 20,100 1,923 Climbing FlightAware ADS-B
Wed 01:27:36 PM 58.9440 16.9630 218° Southwest 389 448 21,300 1,756 Climbing FlightAware ADS-B
Wed 01:28:22 PM 58.8790 16.8640 218° Southwest 397 457 22,500 1,467 Climbing FlightAware ADS-B
Wed 01:29:06 PM 58.8160 16.7710 217° Southwest 402 463 23,500 1,357 Climbing FlightAware ADS-B
Wed 01:29:46 PM 58.7570 16.6830 218° Southwest 407 468 24,400 1,149 Climbing FlightAware ADS-B
Wed 01:30:40 PM 58.6780 16.5660 218° Southwest 419 482 25,300 1,030 Climbing FlightAware ADS-B
Wed 01:31:25 PM 58.6050 16.4580 218° Southwest 430 495 26,100 1,091 Climbing FlightAware ADS-B
Wed 01:32:08 PM 58.5370 16.3590 217° Southwest 433 498 26,900 1,143 Climbing FlightAware ADS-B
Wed 01:32:49 PM 58.4730 16.2650 218° Southwest 438 504 27,700 1,111 Climbing FlightAware ADS-B
Wed 01:33:29 PM 58.4050 16.1660 217° Southwest 439 505 28,400 923 Climbing FlightAware ADS-B
Wed 01:34:07 PM 58.3450 16.0850 215° Southwest 446 513 28,900 767 Climbing FlightAware ADS-B
Wed 01:34:55 PM 58.2510 16.0000 205° Southwest 457 526 29,500 695 Climbing FlightAware ADS-B
Wed 01:35:42 PM 58.1900 15.9460 205° Southwest 457 526 30,000 1,133 Climbing FlightAware ADS-B
Wed 01:36:25 PM 58.0780 15.8510 204° Southwest 453 521 31,200 1,357 Climbing FlightAware ADS-B
Wed 01:37:06 PM 58.0020 15.7850 205° Southwest 449 517 31,900 975 Climbing FlightAware ADS-B
Wed 01:37:45 PM 57.9290 15.7240 204° Southwest 448 516 32,500 988 Climbing FlightAware ADS-B
Wed 01:38:31 PM 57.8430 15.6510 204° Southwest 445 512 33,300 1,034 Climbing FlightAware ADS-B
Wed 01:39:12 PM 57.7680 15.5880 204° Southwest 439 505 34,000 837 Climbing FlightAware ADS-B
Wed 01:39:57 PM 57.6840 15.5180 204° Southwest 439 505 34,500 667 Climbing FlightAware ADS-B
Wed 01:40:33 PM 57.6170 15.4620 204° Southwest 439 505 34,900 741 Climbing FlightAware ADS-B
Wed 01:41:18 PM 57.5320 15.3910 204° Southwest 435 501 35,500 674 Climbing FlightAware ADS-B
Wed 01:42:02 PM 57.4530 15.3260 204° Southwest 435 501 35,900 349 Climbing FlightAware ADS-B
Wed 01:42:44 PM 57.3750 15.2630 204° Southwest 435 501 36,000 72 Climbing FlightAware ADS-B
Wed 01:43:25 PM 57.3120 15.2110 204° Southwest 435 501 36,000  Level FlightAware ADS-B
Wed 01:44:02 PM 57.2300 15.1440 204° Southwest 435 501 36,000  Level FlightAware ADS-B
Wed 01:44:51 PM 57.1420 15.0730 204° Southwest 433 498 36,000  Level FlightAware ADS-B
Wed 01:45:32 PM 57.0670 15.0130 204° Southwest 432 497 36,000  Level FlightAware ADS-B
Wed 01:46:07 PM 57.0050 14.9630 204° Southwest 424 488 36,000  Level FlightAware ADS-B
Wed 01:46:54 PM 56.9230 14.8970 204° Southwest 432 497 36,000  Level FlightAware ADS-B
Wed 01:47:35 PM 56.8420 14.8330 203° Southwest 432 497 36,000  Level FlightAware ADS-B
Wed 01:48:17 PM 56.7660 14.7730 203° Southwest 433 498 36,000  Level FlightAware ADS-B
Wed 01:48:59 PM 56.6880 14.7120 203° Southwest 432 497 36,000  Level FlightAware ADS-B
Wed 01:49:37 PM 56.6180 14.6560 204° Southwest 431 496 36,000  Level FlightAware ADS-B
Wed 01:50:00 PM 56.5770 14.6250 203° Southwest 431 496 36,000  Level FlightAware ADS-B
Wed 01:50:58 PM 56.4700 14.5410 203° Southwest 430 495 36,000  Level FlightAware ADS-B
Wed 01:51:42 PM 56.3900 14.4790 203° Southwest 429 494 36,000  Level FlightAware ADS-B
Wed 01:52:20 PM 56.3220 14.4270 203° Southwest 429 494 36,000  Level FlightAware ADS-B
Wed 01:53:04 PM 56.2420 14.3650 203° Southwest 429 494 36,000  Level FlightAware ADS-B
Wed 01:53:42 PM 56.1730 14.3120 203° Southwest 429 494 36,000  Level FlightAware ADS-B
Wed 01:54:29 PM 56.0880 14.2480 203° Southwest 430 495 36,000  Level FlightAware ADS-B
Wed 01:55:09 PM 56.0140 14.1910 203° Southwest 430 495 36,000  Level FlightAware ADS-B
Wed 01:55:53 PM 55.9330 14.1300 203° Southwest 430 495 36,000  Level FlightAware ADS-B
Wed 01:56:35 PM 55.8570 14.0730 203° Southwest 430 495 36,000  Level FlightAware ADS-B
Wed 01:57:13 PM 55.7870 14.0210 203° Southwest 430 495 36,000  Level FlightAware ADS-B
Wed 01:57:59 PM 55.7040 13.9590 203° Southwest 430 495 36,000  Level FlightAware ADS-B
Wed 01:58:41 PM 55.6260 13.9010 203° Southwest 432 497 36,000  Level FlightAware ADS-B
Wed 01:59:19 PM 55.5570 13.8500 203° Southwest 434 499 36,000  Level FlightAware ADS-B
Wed 02:00:05 PM 55.4760 13.7910 202° Southwest 444 511 36,000  Level FlightAware ADS-B
Wed 02:01:16 PM 55.3380 13.6900 203° Southwest 453 521 36,000  Level FlightAware ADS-B
Wed 02:01:56 PM 55.2610 13.6310 204° Southwest 450 518 36,000 75 Level FlightAware ADS-B
Wed 02:02:36 PM 55.1860 13.5540 210° Southwest 447 514 36,100 70 Climbing FlightAware ADS-B
Wed 02:03:22 PM 55.1040 13.4670 211° Southwest 449 517 36,100  Level FlightAware ADS-B
Wed 02:04:04 PM 55.0320 13.3920 211° Southwest 449 517 36,100 -72 Level FlightAware ADS-B
Wed 02:04:45 PM 54.9600 13.3160 211° Southwest 448 516 36,000 -76 Descending FlightAware ADS-B
Wed 02:05:23 PM 54.8910 13.2450 211° Southwest 447 514 36,000  Level FlightAware ADS-B
Wed 02:06:10 PM 54.8060 13.1570 211° Southwest 447 514 36,000  Level FlightAware ADS-B
Wed 02:06:50 PM 54.7350 13.0830 211° Southwest 447 514 36,000  Level FlightAware ADS-B
Wed 02:07:28 PM 54.6690 13.0160 210° Southwest 447 514 36,000  Level FlightAware ADS-B
Wed 02:08:16 PM 54.5820 12.9270 211° Southwest 446 513 36,000  Level FlightAware ADS-B
Wed 02:08:58 PM 54.5080 12.8510 211° Southwest 444 511 36,000  Level FlightAware ADS-B
Wed 02:09:38 PM 54.4390 12.7810 211° Southwest 444 511 36,000  Level FlightAware ADS-B
Wed 02:10:20 PM 54.3640 12.7060 210° Southwest 445 512 36,000  Level FlightAware ADS-B
Wed 02:10:58 PM 54.2980 12.6380 211° Southwest 445 512 36,000  Level FlightAware ADS-B
Wed 02:11:54 PM 54.2120 12.5540 210° Southwest 445 512 36,000  Level FlightAware ADS-B
Wed 02:12:36 PM 54.1220 12.4630 211° Southwest 445 512 36,000  Level FlightAware ADS-B
Wed 02:13:15 PM 54.0600 12.4010 210° Southwest 445 512 36,000  Level FlightAware ADS-B
Wed 02:13:58 PM 53.9770 12.3200 210° Southwest 444 511 36,000  Level FlightAware ADS-B
Wed 02:14:42 PM 53.9040 12.2470 211° Southwest 443 510 36,000  Level FlightAware ADS-B
Wed 02:15:22 PM 53.8280 12.1730 210° Southwest 444 511 36,000  Level FlightAware ADS-B
Wed 02:16:03 PM 53.7610 12.1070 210° Southwest 444 511 36,000  Level FlightAware ADS-B
Wed 02:16:48 PM 53.6770 12.0260 210° Southwest 447 514 36,000  Level FlightAware ADS-B
Wed 02:17:30 PM 53.6020 11.9540 210° Southwest 447 514 36,000  Level FlightAware ADS-B
Wed 02:18:08 PM 53.5310 11.8850 210° Southwest 448 516 36,000  Level FlightAware ADS-B
Wed 02:18:54 PM 53.4480 11.8050 210° Southwest 449 517 36,000  Level FlightAware ADS-B
Wed 02:19:38 PM 53.3710 11.7310 210° Southwest 449 517 36,000  Level FlightAware ADS-B
Wed 02:20:30 PM 53.2760 11.6410 210° Southwest 450 518 36,000  Level FlightAware ADS-B
Wed 02:21:10 PM 53.2040 11.5730 210° Southwest 450 518 36,000  Level FlightAware ADS-B
Wed 02:21:56 PM 53.1200 11.4940 209° Southwest 450 518 36,000  Level FlightAware ADS-B
Wed 02:22:36 PM 53.0480 11.4260 210° Southwest 451 519 36,000  Level FlightAware ADS-B
Wed 02:23:20 PM 52.9700 11.3530 209° Southwest 451 519 36,000  Level FlightAware ADS-B
Wed 02:24:00 PM 52.8960 11.2840 209° Southwest 452 520 36,000  Level FlightAware ADS-B
Wed 02:24:41 PM 52.8210 11.2150 209° Southwest 453 521 36,000  Level FlightAware ADS-B
Wed 02:25:23 PM 52.7450 11.1440 209° Southwest 453 521 36,000  Level FlightAware ADS-B
Wed 02:26:09 PM 52.6620 11.0680 209° Southwest 455 524 36,000  Level FlightAware ADS-B
Wed 02:26:49 PM 52.5870 10.9990 209° Southwest 457 526 36,000  Level FlightAware ADS-B
Wed 02:27:32 PM 52.5090 10.9280 209° Southwest 458 527 36,000 -77 Level FlightAware ADS-B
Wed 02:28:07 PM 52.4450 10.8690 209° Southwest 460 529 35,900 -600 Descending FlightAware ADS-B
Wed 02:28:52 PM 52.3610 10.7980 207° Southwest 456 525 35,200 -1,000 Descending FlightAware ADS-B
Wed 02:29:37 PM 52.2680 10.7410 201° Southwest 461 531 34,400 -869 Descending FlightAware ADS-B
Wed 02:30:18 PM 52.2130 10.7090 200° South 34,000 -780 Descending FlightAware ADS-B
Wed 02:31:17 PM 52.0940 10.6420 199° South 460 529 33,100 -1,091 Descending FlightAware ADS-B
Wed 02:31:57 PM 51.9830 10.5800 199° South 462 532 32,200 -1,077 Descending FlightAware ADS-B
Wed 02:32:35 PM 51.9300 10.5500 199° South 457 526 31,700 -1,231 Descending FlightAware ADS-B
Wed 02:33:15 PM 51.8470 10.5040 199° South 450 518 30,600 -1,481 Descending FlightAware ADS-B
Wed 02:33:56 PM 51.7730 10.4620 199° South 440 506 29,700 -1,582 Descending FlightAware ADS-B
Wed 02:34:46 PM 51.6600 10.3990 199° South 432 497 28,200 -1,682 Descending FlightAware ADS-B
Wed 02:35:43 PM 51.5460 10.3370 199° South 423 487 26,700 -1,370 Descending FlightAware ADS-B
Wed 02:36:18 PM 51.4860 10.3030 199° South 426 490 26,100 -1,000 Descending FlightAware ADS-B
Wed 02:37:01 PM 51.4050 10.2590 199° South 420 483 25,400 -742 Descending FlightAware ADS-B
Wed 02:37:47 PM 51.3220 10.2220 196° South 425 489 25,000 -614 Descending FlightAware ADS-B
Wed 02:38:29 PM 51.2390 10.2180 182° South 426 490 24,500 -1,020 Descending FlightAware ADS-B
Wed 02:39:27 PM 51.1300 10.2150 181° South 420 483 23,300 -1,429 Descending FlightAware ADS-B
Wed 02:39:53 PM 51.0790 10.1870 199° South 398 458 22,500 -1,818 Descending FlightAware ADS-B
Wed 02:40:33 PM 51.0160 10.1230 213° Southwest 382 440 21,300 -1,765 Descending FlightAware ADS-B
Wed 02:41:18 PM 50.9510 10.0580 212° Southwest 379 436 20,000 -1,765 Descending FlightAware ADS-B
Wed 02:41:58 PM 50.8910 9.9970 213° Southwest 364 419 18,800 -1,800 Descending FlightAware ADS-B
Wed 02:42:38 PM 50.8330 9.9390 212° Southwest 363 418 17,600 -1,835 Descending FlightAware ADS-B
Wed 02:43:23 PM 50.7710 9.8760 213° Southwest 351 404 16,200 -1,906 Descending FlightAware ADS-B
Wed 02:44:03 PM 50.7160 9.8210 212° Southwest 345 397 14,900 -1,926 Descending FlightAware ADS-B
Wed 02:44:44 PM 50.6610 9.7660 212° Southwest 342 394 13,600 -1,588 Descending FlightAware ADS-B
Wed 02:45:45 PM 50.6040 9.7100 212° Southwest 344 396 12,200 -1,304 Descending FlightAware ADS-B
Wed 02:46:39 PM 50.5240 9.6310 212° Southwest 309 356 11,100 -766 Descending FlightAware ADS-B
Wed 02:47:19 PM 50.4690 9.5670 217° Southwest 289 333 11,000 -496 Descending FlightAware ADS-B
Wed 02:48:40 PM 50.3820 9.4580 219° Southwest 277 319 10,100 -703 Descending FlightAware ADS-B
Wed 02:49:10 PM 50.3550 9.4230 220° Southwest 272 313 9,700 -1,000 Descending FlightAware ADS-B
Wed 02:49:34 PM 50.3290 9.3900 219° Southwest 264 304 9,200 -1,043 Descending FlightAware ADS-B
Wed 02:49:56 PM 50.3090 9.3650 219° Southwest 249 287 8,900 -740 Descending FlightAware ADS-B
Wed 02:50:47 PM 50.2670 9.3120 219° Southwest 236 272 8,300 -835 Descending FlightAware ADS-B
Wed 02:51:15 PM 50.2420 9.2800 219° Southwest 242 278 7,800 -964 Descending FlightAware ADS-B
Wed 02:51:43 PM 50.2180 9.2480 220° Southwest 243 280 7,400 -643 Descending FlightAware ADS-B
Wed 02:52:11 PM 50.1950 9.2170 221° Southwest 223 257 7,200 -340 Descending FlightAware ADS-B
Wed 02:52:36 PM 50.1850 9.1950 235° Southwest 205 236 7,100 -293 Descending FlightAware ADS-B
Wed 02:52:52 PM 50.1770 9.1660 247° West 193 222 7,000 -558 Descending FlightAware ADS-B
Wed 02:53:19 PM 50.1680 9.1310 248° West 195 224 6,700 -625 Descending FlightAware ADS-B
Wed 02:53:40 PM 50.1610 9.1020 249° West 191 220 6,500 -652 Descending FlightAware ADS-B
Wed 02:54:05 PM 50.1530 9.0690 249° West 192 221 6,200 -750 Descending FlightAware ADS-B
Wed 02:54:36 PM 50.1440 9.0300 250° West 191 220 5,800 -700 Descending FlightAware ADS-B
Wed 02:55:05 PM 50.1360 8.9910 252° West 189 217 5,500 -783 Descending FlightAware ADS-B
Wed 02:55:45 PM 50.1230 8.9400 248° West 188 216 4,900 -824 Descending FlightAware ADS-B
Wed 02:55:56 PM 50.1200 8.9270 250° West 190 219 4,800 -900 Descending FlightAware ADS-B
Wed 02:56:25 PM 50.1110 8.8890 250° West 190 219 4,300 -1,100 Descending FlightAware ADS-B
Wed 02:56:56 PM 50.1020 8.8500 250° West 186 214 3,700 -1,171 Descending FlightAware ADS-B
Wed 02:57:06 PM 50.0990 8.8370 250° West 187 215 3,500 -923 Descending FlightAware ADS-B
Wed 02:57:35 PM 50.0910 8.8000 251° West 188 216 3,100 -933 Descending FlightAware ADS-B
Wed 02:57:51 PM 50.0860 8.7820 247° West 190 219 2,800 -1,050 Descending FlightAware ADS-B
Wed 02:58:15 PM 50.0780 8.7490 249° West 189 217 2,400 -1,000 Descending FlightAware ADS-B
Wed 02:58:45 PM 50.0700 8.7120 251° West 167 192 1,900 -842 Descending FlightAware ADS-B
Wed 02:59:12 PM 50.0670 8.6840 261° West 140 161 1,600 -873 Descending FlightAware ADS-B
Wed 02:59:40 PM 50.0620 8.6560 254° West 142 163 1,100 -977 Descending FlightAware ADS-B
Wed 02:59:55 PM 50.0580 8.6420 246° West 142 163 900 -800 Descending FlightAware ADS-B
Wed 03:02:00 PM 50.0264 8.5431 244° Southwest  Level Estimated
Wed 03:03:00 PM 50.0264 8.5431 73° East  Level Estimated
Wed 03:04:00 PM 50.0264 8.5431 73° East  Level Estimated
Wed 03:05:00 PM 50.0264 8.5431 73° East  Level Estimated
Wed 03:06:00 PM 50.0264 8.5431 73° East  Level Estimated
Wed 03:07:00 PM 50.0264 8.5431 73° East  Level Estimated

Login

Don't have an account? Register now (free) for customized features, flight alerts, and more!